Time;durP1;ratioP1;P1;durP2;ratioP2;P2;SDS_P1;SDS_P2;PMS_P1;PMS_P2;Temp;Humidity;BMP_temperature;BMP_pressure;BME280_temperature;BME280_humidity;BME280_pressure;Samples;Min_cycle;Max_cycle;Signal;HPM_P1;HPM_P2
2022/11/05 00:16:58;;;;;;;14.43;7.55;;;;;;;7.25;92.02;101400.53;5032425;28;20064;-72
2022/11/05 00:19:25;;;;;;;12.80;6.82;;;;;;;7.22;91.89;101392.69;5041519;28;20474;-76
2022/11/05 00:27:24;;;;;;;12.27;7.22;;;;;;;7.02;91.58;101405.94;5029891;28;20046;-76
2022/11/05 00:29:51;;;;;;;10.32;6.43;;;;;;;6.93;91.40;101412.97;5024301;28;20048;-76
2022/11/05 00:32:18;;;;;;;10.98;6.88;;;;;;;6.86;91.12;101413.88;5010787;28;20046;-75
2022/11/05 00:34:45;;;;;;;12.32;7.30;;;;;;;6.79;91.22;101428.78;5026914;28;20057;-76
2022/11/05 00:37:12;;;;;;;10.43;7.25;;;;;;;6.75;91.36;101426.16;5026193;28;20182;-75
2022/11/05 00:39:39;;;;;;;10.02;6.82;;;;;;;6.67;91.36;101426.19;5028118;28;20041;-75
2022/11/05 00:45:01;;;;;;;12.35;7.07;;;;;;;6.51;90.96;101421.03;5024400;28;20046;-75
2022/11/05 00:50:19;;;;;;;10.02;7.22;;;;;;;6.36;91.13;101426.31;5027853;28;20100;-75
2022/11/05 00:52:55;;;;;;;10.85;7.20;;;;;;;6.30;91.39;101423.75;5023795;28;20055;-75
2022/11/05 00:55:27;;;;;;;11.82;6.38;;;;;;;6.25;91.38;101428.13;5028402;28;20116;-76
2022/11/05 00:57:56;;;;;;;12.88;7.90;;;;;;;6.17;91.49;101422.91;5027509;28;20065;-75
2022/11/05 01:00:27;;;;;;;9.90;7.10;;;;;;;6.13;91.54;101431.63;5029361;28;20045;-76
2022/11/05 01:03:01;;;;;;;14.20;6.97;;;;;;;6.07;91.35;101422.03;5015243;28;20170;-76
2022/11/05 01:05:30;;;;;;;8.57;6.95;;;;;;;6.02;91.76;101429.91;5020449;28;20128;-75
2022/11/05 01:08:00;;;;;;;14.23;7.57;;;;;;;6.00;91.85;101426.41;5028203;28;20058;-75
2022/11/05 01:10:28;;;;;;;11.93;7.85;;;;;;;6.01;92.16;101440.41;5025990;28;20042;-75
2022/11/05 01:12:56;;;;;;;15.05;7.93;;;;;;;6.03;92.19;101441.28;5026022;28;20906;-75
2022/11/05 01:15:23;;;;;;;16.75;8.68;;;;;;;6.06;92.20;101436.91;5014545;28;20053;-75
2022/11/05 01:17:51;;;;;;;14.85;8.60;;;;;;;6.08;92.10;101441.25;5021586;28;20046;-75
2022/11/05 01:20:18;;;;;;;13.68;8.65;;;;;;;6.05;91.92;101443.00;5024970;28;20044;-75
2022/11/05 01:22:45;;;;;;;12.43;8.43;;;;;;;6.02;91.80;101445.63;5022193;28;20050;-75
2022/11/05 01:25:12;;;;;;;15.40;8.90;;;;;;;5.97;91.64;101455.19;5016182;28;20048;-75
2022/11/05 01:27:39;;;;;;;15.80;8.65;;;;;;;5.94;91.38;101454.34;5019455;28;20049;-75
2022/11/05 01:30:08;;;;;;;13.45;8.50;;;;;;;5.90;91.79;101462.19;5025114;28;20496;-75
2022/11/05 01:32:36;;;;;;;16.88;8.70;;;;;;;5.88;91.78;101463.06;5030114;28;20480;-75
2022/11/05 01:35:06;;;;;;;17.05;8.65;;;;;;;5.85;91.97;101457.81;5021999;28;20038;-75
2022/11/05 01:37:35;;;;;;;14.55;9.15;;;;;;;5.83;91.97;101470.91;5021270;28;20049;-75
2022/11/05 01:40:05;;;;;;;15.77;9.15;;;;;;;5.78;91.99;101472.66;5027957;28;20042;-73
2022/11/05 01:42:33;;;;;;;16.52;9.35;;;;;;;5.72;91.59;101473.53;5032899;28;20062;-72
2022/11/05 01:45:11;;;;;;;15.45;8.98;;;;;;;5.69;91.87;101470.03;5025372;28;20050;-72
2022/11/05 01:48:00;;;;;;;12.90;9.00;;;;;;;5.67;92.11;101477.00;5015302;28;20046;-72
2022/11/05 01:50:33;;;;;;;16.00;8.40;;;;;;;5.62;92.09;101479.63;5024972;28;20532;-77
2022/11/05 01:53:35;;;;;;;15.43;9.27;;;;;;;5.59;92.22;101474.41;5040820;28;20520;-76
2022/11/05 01:56:42;;;;;;;15.50;8.43;;;;;;;5.56;92.30;101477.88;5027595;28;20038;-76
2022/11/05 01:59:23;;;;;;;16.83;8.63;;;;;;;5.55;92.18;101485.72;5029024;28;20038;-76
2022/11/05 02:01:52;;;;;;;15.85;8.93;;;;;;;5.52;92.21;101480.50;5025505;28;20050;-78
2022/11/05 02:04:31;;;;;;;15.70;8.88;;;;;;;5.52;92.40;101480.50;5026899;28;20097;-78
2022/11/05 02:06:59;;;;;;;12.85;8.55;;;;;;;5.52;92.52;101488.34;5022059;28;20056;-78
2022/11/05 02:09:40;;;;;;;13.02;8.93;;;;;;;5.53;92.66;101490.97;5030700;28;20054;-78
2022/11/05 02:12:08;;;;;;;10.40;8.40;;;;;;;5.53;93.00;101484.84;5034500;28;20136;-77
2022/11/05 02:14:35;;;;;;;15.75;8.32;;;;;;;5.54;92.88;101473.53;5020227;28;20045;-77
2022/11/05 02:17:36;;;;;;;13.05;8.18;;;;;;;5.53;92.80;101472.66;5024933;28;20041;-78
2022/11/05 02:20:55;;;;;;;11.07;8.80;;;;;;;5.48;92.66;101470.91;5019661;28;20109;-78
2022/11/05 02:23:53;;;;;;;11.18;8.07;;;;;;;5.44;92.94;101473.53;4995841;28;20054;-77
2022/11/05 02:27:24;;;;;;;13.02;8.75;;;;;;;5.43;92.99;101468.28;5028688;28;20042;-77
2022/11/05 02:30:04;;;;;;;12.20;7.88;;;;;;;5.39;92.94;101464.78;5018635;28;20049;-76
2022/11/05 02:33:16;;;;;;;11.48;8.00;;;;;;;5.39;92.89;101466.53;5028492;28;20096;-74
2022/11/05 02:36:02;;;;;;;13.45;8.75;;;;;;;5.35;92.89;101462.16;5017935;28;20081;-74
2022/11/05 02:38:50;;;;;;;14.45;8.75;;;;;;;5.33;93.12;101462.16;5014682;28;20038;-77
2022/11/05 02:41:56;;;;;;;12.98;7.82;;;;;;;5.30;92.98;101456.94;5023194;28;20037;-77
2022/11/05 02:45:20;;;;;;;10.48;7.75;;;;;;;5.23;92.96;101458.69;5022747;28;20133;-76
2022/11/05 02:48:12;;;;;;;12.27;8.10;;;;;;;5.18;93.13;101449.09;5019039;28;20098;-77
2022/11/05 02:50:59;;;;;;;15.90;8.75;;;;;;;5.15;93.16;101451.69;5017378;28;20034;-76
2022/11/05 02:53:43;;;;;;;12.70;8.55;;;;;;;5.10;93.20;101456.91;5025791;28;20046;-77
2022/11/05 02:56:22;;;;;;;12.73;8.32;;;;;;;5.07;93.25;101455.16;5031034;28;20095;-77
2022/11/05 02:58:49;;;;;;;12.48;8.25;;;;;;;5.03;93.33;101463.00;5026284;28;20136;-76
2022/11/05 03:01:16;;;;;;;11.85;7.82;;;;;;;4.97;93.18;101462.09;5023541;28;20050;-76
2022/11/05 03:04:08;;;;;;;15.38;8.13;;;;;;;4.92;93.12;101455.09;5031827;28;20108;-77
2022/11/05 03:07:02;;;;;;;11.07;7.13;;;;;;;4.86;92.99;101463.78;5034223;28;20476;-76
2022/11/05 03:10:05;;;;;;;10.38;7.28;;;;;;;4.80;93.03;101458.56;5023420;28;20049;-75
2022/11/05 03:12:46;;;;;;;11.35;7.65;;;;;;;4.73;93.25;101460.28;5025987;28;20046;-74
2022/11/05 03:15:42;;;;;;;13.10;7.90;;;;;;;4.67;93.24;101457.66;5025973;28;20073;-75
2022/11/05 03:18:41;;;;;;;13.25;7.45;;;;;;;4.67;93.45;101468.09;5029189;28;20046;-75
2022/11/05 03:21:20;;;;;;;10.98;7.43;;;;;;;4.64;93.51;101463.72;5025705;28;20049;-73
2022/11/05 03:24:14;;;;;;;9.27;6.93;;;;;;;4.64;93.64;101468.94;5031380;28;20069;-73
2022/11/05 03:26:53;;;;;;;12.10;7.35;;;;;;;4.64;93.38;101460.25;5023137;28;20900;-77
2022/11/05 03:29:32;;;;;;;13.63;7.63;;;;;;;4.64;93.84;101465.47;5035584;28;20057;-75
2022/11/05 03:32:03;;;;;;;13.25;7.07;;;;;;;4.61;93.67;101452.38;5028508;28;20093;-74
2022/11/05 03:34:37;;;;;;;12.45;7.03;;;;;;;4.60;93.59;101461.09;5024098;28;20045;-75
2022/11/05 03:37:06;;;;;;;9.18;6.53;;;;;;;4.58;93.69;101463.69;5024083;28;20536;-75
2022/11/05 03:39:42;;;;;;;12.02;6.90;;;;;;;4.56;93.53;101468.03;5021479;28;20042;-75
2022/11/05 03:42:15;;;;;;;14.55;7.43;;;;;;;4.56;93.88;101473.25;5031056;28;20049;-76
2022/11/05 03:44:54;;;;;;;11.20;7.63;;;;;;;4.59;93.85;101486.34;5021640;28;20044;-75
2022/11/05 03:47:35;;;;;;;14.48;8.10;;;;;;;4.62;94.04;101480.25;5022066;28;20043;-75
2022/11/05 03:50:16;;;;;;;12.27;7.32;;;;;;;4.64;94.12;101482.00;5017054;28;20042;-75
2022/11/05 03:53:27;;;;;;;11.70;8.02;;;;;;;4.66;94.09;101480.28;5025827;28;20494;-75
2022/11/05 03:56:12;;;;;;;16.95;8.13;;;;;;;4.66;94.16;101484.63;5018325;28;20051;-75
2022/11/05 03:58:43;;;;;;;11.75;8.30;;;;;;;4.65;94.27;101486.34;5026796;28;20065;-75
2022/11/05 04:01:11;;;;;;;16.55;8.10;;;;;;;4.65;94.23;101485.50;5023784;28;20050;-74
2022/11/05 04:03:38;;;;;;;14.20;7.50;;;;;;;4.64;94.24;101494.19;5016186;28;20034;-75
2022/11/05 04:14:25;;;;;;;12.10;7.60;;;;;;;4.44;94.08;101492.34;5020095;28;20042;-75
2022/11/05 04:17:10;;;;;;;13.25;6.90;;;;;;;4.40;94.12;101493.19;5018277;28;20542;-75
2022/11/05 04:25:22;;;;;;;11.38;7.30;;;;;;;4.28;94.24;101494.00;5030799;28;20049;-74
2022/11/05 04:27:59;;;;;;;13.15;8.10;;;;;;;4.25;94.10;101493.97;5027941;28;20034;-73
2022/11/05 04:30:26;;;;;;;15.77;7.97;;;;;;;4.22;94.13;101499.19;5030799;28;20445;-73
2022/11/05 04:33:03;;;;;;;15.32;8.13;;;;;;;4.22;94.33;101503.53;5029711;28;20100;-75
2022/11/05 04:35:44;;;;;;;12.95;8.25;;;;;;;4.19;94.65;101492.19;5036054;28;20807;-74
2022/11/05 04:38:16;;;;;;;13.40;8.68;;;;;;;4.17;94.29;101496.53;5021268;28;20043;-74
2022/11/05 04:40:47;;;;;;;12.23;8.10;;;;;;;4.14;94.40;101506.97;5018207;28;20047;-74
2022/11/05 04:43:17;;;;;;;13.98;8.52;;;;;;;4.14;94.47;101501.75;5029755;28;20084;-74
2022/11/05 04:45:45;;;;;;;15.82;8.88;;;;;;;4.14;94.50;101509.56;5026969;28;20081;-74
2022/11/05 04:48:12;;;;;;;17.77;9.73;;;;;;;4.14;94.51;101512.19;5022728;28;20045;-74
2022/11/05 04:50:39;;;;;;;14.90;8.45;;;;;;;4.14;94.62;101516.50;5034551;28;20533;-74
2022/11/05 04:53:06;;;;;;;14.07;8.85;;;;;;;4.11;94.59;101514.75;5016423;28;20074;-74
2022/11/05 04:55:34;;;;;;;12.95;8.95;;;;;;;4.10;94.44;101517.38;5015520;28;20046;-74
2022/11/05 04:58:01;;;;;;;16.52;9.27;;;;;;;4.08;94.58;101522.56;5028233;28;20089;-76
2022/11/05 05:00:28;;;;;;;17.48;9.32;;;;;;;4.06;94.48;101518.19;5024430;28;20544;-76
2022/11/05 05:02:55;;;;;;;14.73;9.05;;;;;;;4.03;94.33;101516.44;5022162;28;20041;-76
2022/11/05 05:05:23;;;;;;;13.00;8.90;;;;;;;4.02;94.89;101526.00;5018492;28;20121;-76
2022/11/05 05:07:50;;;;;;;13.93;8.52;;;;;;;3.99;94.60;101518.16;5028543;28;20063;-76
2022/11/05 05:10:17;;;;;;;17.05;10.27;;;;;;;4.00;94.82;101522.53;5015047;28;20523;-76
2022/11/05 05:12:44;;;;;;;21.48;10.40;;;;;;;4.02;94.88;101523.38;5026972;28;20484;-76
2022/11/05 05:15:12;;;;;;;17.17;9.80;;;;;;;4.03;94.94;101527.75;5012476;28;20081;-76
2022/11/05 05:17:39;;;;;;;17.67;10.23;;;;;;;4.04;95.05;101531.25;5019815;28;20042;-76
2022/11/05 05:22:57;;;;;;;14.23;10.60;;;;;;;4.07;95.02;101543.44;5023425;28;20049;-75
2022/11/05 05:25:24;;;;;;;19.95;11.35;;;;;;;4.08;95.10;101542.56;5014015;28;20041;-74
2022/11/05 05:27:54;;;;;;;17.40;12.38;;;;;;;4.09;95.33;101542.56;5026128;28;20481;-75
2022/11/05 05:30:22;;;;;;;21.23;12.23;;;;;;;4.13;95.33;101536.53;5020980;28;20046;-75
2022/11/05 05:32:49;;;;;;;24.10;12.93;;;;;;;4.14;95.25;101534.78;5015519;28;20136;-74
2022/11/05 05:35:16;;;;;;;19.33;12.60;;;;;;;4.17;95.42;101529.59;5019053;28;20038;-74
2022/11/05 05:37:43;;;;;;;20.50;12.73;;;;;;;4.20;95.44;101535.72;5023899;28;20042;-75
2022/11/05 05:40:10;;;;;;;25.23;14.57;;;;;;;4.24;95.50;101538.34;5028456;28;20042;-73
2022/11/05 05:42:37;;;;;;;20.20;14.27;;;;;;;4.28;95.75;101541.00;5026221;28;20038;-75
2022/11/05 05:45:11;;;;;;;21.38;13.93;;;;;;;4.33;95.79;101539.25;5025672;28;20097;-73
2022/11/05 05:47:38;;;;;;;23.98;13.95;;;;;;;4.36;95.88;101543.66;5025307;28;20512;-75
2022/11/05 05:50:06;;;;;;;25.13;14.70;;;;;;;4.38;95.90;101539.28;5013984;28;20051;-74
2022/11/05 05:52:32;;;;;;;22.30;14.25;;;;;;;4.41;95.95;101541.06;5024699;28;20042;-76
2022/11/05 05:55:00;;;;;;;23.80;14.40;;;;;;;4.41;95.91;101541.06;5020582;28;20054;-75
2022/11/05 05:57:27;;;;;;;25.25;15.50;;;;;;;4.43;95.92;101540.22;5037121;28;20049;-76
2022/11/05 05:59:54;;;;;;;24.55;15.18;;;;;;;4.44;96.10;101543.69;5026803;28;20042;-76
2022/11/05 06:02:21;;;;;;;21.73;14.45;;;;;;;4.45;96.13;101541.09;5017441;28;20041;-76
2022/11/05 06:04:49;;;;;;;28.17;15.70;;;;;;;4.48;96.29;101541.09;5021396;28;20059;-76
2022/11/05 06:07:16;;;;;;;23.95;15.30;;;;;;;4.53;96.33;101546.34;5022695;28;20053;-75
2022/11/05 06:09:43;;;;;;;24.08;14.93;;;;;;;4.55;96.25;101542.03;5026702;28;20073;-76
2022/11/05 06:12:10;;;;;;;24.25;15.10;;;;;;;4.58;96.49;101546.41;5025645;28;20745;-76
2022/11/05 06:14:37;;;;;;;23.02;15.13;;;;;;;4.63;96.42;101548.16;5032655;28;20165;-76
2022/11/05 06:17:06;;;;;;;21.48;14.68;;;;;;;4.65;96.36;101550.78;5017714;28;20046;-76
2022/11/05 06:19:33;;;;;;;23.10;15.27;;;;;;;4.67;96.23;101546.47;5019289;28;20043;-76
2022/11/05 06:22:00;;;;;;;22.40;15.05;;;;;;;4.69;96.24;101552.53;5021664;28;20038;-76
2022/11/05 06:24:28;;;;;;;21.27;14.30;;;;;;;4.66;95.86;101561.25;5038582;28;20951;-76
2022/11/05 06:26:55;;;;;;;19.88;14.23;;;;;;;4.64;95.80;101554.25;5021046;28;20042;-76
2022/11/05 06:29:22;;;;;;;23.10;13.52;;;;;;;4.60;95.84;101569.06;5028981;28;20124;-75
2022/11/05 06:31:49;;;;;;;20.15;12.23;;;;;;;4.52;95.71;101573.34;5021774;28;20073;-76
2022/11/05 06:34:16;;;;;;;17.60;11.88;;;;;;;4.44;95.48;101582.84;5028714;28;20045;-75
2022/11/05 06:36:43;;;;;;;17.45;11.45;;;;;;;4.34;95.39;101582.78;5024409;28;20515;-75
2022/11/05 06:39:11;;;;;;;18.10;11.43;;;;;;;4.24;95.19;101585.31;5024262;28;20487;-75
2022/11/05 06:41:38;;;;;;;17.02;11.40;;;;;;;4.14;95.05;101580.03;5027253;28;20038;-74
2022/11/05 06:44:26;;;;;;;17.13;11.05;;;;;;;4.04;95.06;101581.69;5025014;28;20124;-73
2022/11/05 06:46:53;;;;;;;18.48;11.57;;;;;;;3.96;94.99;101587.72;5023800;28;20385;-74
2022/11/05 06:49:23;;;;;;;16.55;11.15;;;;;;;3.87;94.99;101586.75;5032785;28;20052;-73
2022/11/05 06:51:51;;;;;;;17.08;12.60;;;;;;;3.83;95.24;101592.81;5028281;28;20530;-74
2022/11/05 06:54:18;;;;;;;21.20;12.32;;;;;;;3.81;95.11;101593.66;5030650;28;20046;-74
2022/11/05 06:56:45;;;;;;;21.20;12.55;;;;;;;3.77;95.05;101587.50;5029893;28;20074;-74
2022/11/05 06:59:13;;;;;;;17.35;11.20;;;;;;;3.77;94.98;101587.50;5028965;28;20084;-73
2022/11/05 07:01:40;;;;;;;20.60;11.45;;;;;;;3.73;94.88;101585.75;5029922;28;20045;-73
2022/11/05 07:04:07;;;;;;;21.20;12.35;;;;;;;3.70;95.00;101596.16;5031840;28;20116;-72
2022/11/05 07:06:34;;;;;;;16.95;11.57;;;;;;;3.70;94.90;101602.25;5027993;28;20053;-74
2022/11/05 07:09:03;;;;;;;18.27;12.02;;;;;;;3.70;95.16;101598.75;5037020;28;20416;-74
2022/11/05 07:11:30;;;;;;;18.13;12.27;;;;;;;3.72;95.05;101599.66;5034452;28;20046;-72
2022/11/05 07:13:58;;;;;;;17.75;12.50;;;;;;;3.73;94.97;101604.88;5030122;28;20555;-72
2022/11/05 07:16:28;;;;;;;20.08;12.00;;;;;;;3.77;95.09;101600.56;5016731;28;20042;-73
2022/11/05 07:18:55;;;;;;;20.92;12.43;;;;;;;3.82;95.11;101605.81;5032816;28;20045;-71
2022/11/05 07:21:22;;;;;;;24.10;15.27;;;;;;;3.84;94.94;101605.00;5048508;28;20096;-72
2022/11/05 07:23:49;;;;;;;28.70;19.27;;;;;;;3.88;94.89;101609.38;5031641;28;20049;-71
2022/11/05 07:26:17;;;;;;;60.78;34.85;;;;;;;3.94;94.96;101607.69;5024583;28;20038;-72
2022/11/05 07:28:44;;;;;;;68.80;38.88;;;;;;;4.03;95.05;101608.63;5030520;28;20500;-72
2022/11/05 07:31:12;;;;;;;60.08;34.00;;;;;;;4.13;95.10;101613.94;5020023;28;20046;-72
2022/11/05 07:33:39;;;;;;;47.03;28.27;;;;;;;4.22;95.15;101608.81;5022184;28;20050;-72
2022/11/05 07:36:07;;;;;;;41.47;23.98;;;;;;;4.33;95.33;101607.16;5032955;28;20046;-72
2022/11/05 07:38:34;;;;;;;28.25;17.58;;;;;;;4.46;95.24;101604.63;5027522;28;20042;-71
2022/11/05 07:41:01;;;;;;;29.35;15.68;;;;;;;4.61;95.40;101614.31;5029453;28;20419;-72
2022/11/05 07:43:28;;;;;;;27.20;15.43;;;;;;;4.77;95.53;101608.34;5028745;28;20069;-72
2022/11/05 07:45:55;;;;;;;20.95;14.27;;;;;;;4.96;95.56;101617.13;5030532;28;20046;-72
2022/11/05 07:48:22;;;;;;;23.08;14.35;;;;;;;5.14;95.69;101612.84;5033720;28;20042;-72
2022/11/05 07:50:51;;;;;;;20.00;13.13;;;;;;;5.29;95.45;101610.31;5031871;28;20042;-73
2022/11/05 07:53:20;;;;;;;22.90;13.90;;;;;;;5.45;95.53;101610.38;5030730;28;20050;-72
2022/11/05 07:55:47;;;;;;;20.95;13.20;;;;;;;5.58;95.25;101612.16;5031509;28;20050;-72
2022/11/05 07:58:14;;;;;;;20.80;12.68;;;;;;;5.68;95.17;101618.31;5029159;28;20064;-72
2022/11/05 08:00:41;;;;;;;19.77;11.85;;;;;;;5.78;95.09;101620.94;5028712;28;20704;-73
2022/11/05 08:03:14;;;;;;;15.88;11.50;;;;;;;5.88;94.90;101627.94;5024578;28;20566;-73
2022/11/05 08:05:45;;;;;;;15.85;10.32;;;;;;;5.96;94.77;101623.59;5028990;28;20056;-73
2022/11/05 08:08:17;;;;;;;16.55;11.57;;;;;;;6.11;94.79;101614.00;5029031;28;20136;-73
2022/11/05 08:10:45;;;;;;;15.32;10.70;;;;;;;6.19;94.33;101621.00;5023110;28;20917;-73
2022/11/05 08:13:12;;;;;;;16.25;10.63;;;;;;;6.29;94.15;101619.28;5027271;28;20100;-73
2022/11/05 08:15:42;;;;;;;15.05;9.90;;;;;;;6.41;94.28;101614.91;5027851;28;20397;-73
2022/11/05 08:18:16;;;;;;;14.77;9.70;;;;;;;6.57;94.22;101621.00;5026576;28;20105;-73
2022/11/05 08:20:45;;;;;;;13.45;8.93;;;;;;;6.66;93.68;101623.63;5026549;28;20041;-73
2022/11/05 08:23:12;;;;;;;16.63;9.23;;;;;;;6.73;93.55;101622.72;5034737;28;20531;-73
2022/11/05 08:25:40;;;;;;;12.43;7.78;;;;;;;6.80;93.31;101621.84;5031739;28;20050;-73
2022/11/05 08:28:11;;;;;;;12.57;8.02;;;;;;;6.93;93.34;101621.81;5033805;28;20100;-73
2022/11/05 08:30:38;;;;;;;10.25;6.68;;;;;;;7.03;93.12;101625.25;5025513;28;20052;-73
2022/11/05 08:33:10;;;;;;;11.30;8.00;;;;;;;7.18;92.95;101620.00;5025079;28;20042;-73
2022/11/05 08:35:39;;;;;;;12.20;7.72;;;;;;;7.28;92.56;101624.31;5030864;28;20049;-73
2022/11/05 08:38:12;;;;;;;16.75;7.90;;;;;;;7.37;92.38;101622.53;5031333;28;20041;-73
2022/11/05 08:40:41;;;;;;;14.82;7.68;;;;;;;7.45;92.28;101625.97;5024923;28;20103;-73
2022/11/05 08:43:11;;;;;;;9.73;7.45;;;;;;;7.60;92.04;101622.41;5020723;28;20058;-74
2022/11/05 08:45:40;;;;;;;12.82;7.32;;;;;;;7.72;91.41;101616.25;5029828;28;20041;-73
2022/11/05 08:48:16;;;;;;;11.98;7.07;;;;;;;7.86;91.49;101626.66;5020833;28;20042;-75
2022/11/05 08:50:46;;;;;;;10.05;6.90;;;;;;;7.97;90.84;101630.06;5021822;28;20035;-74
2022/11/05 08:53:14;;;;;;;14.38;7.25;;;;;;;8.00;90.47;101626.56;5026892;28;20048;-75
2022/11/05 08:55:42;;;;;;;14.27;6.85;;;;;;;8.02;90.24;101625.66;5028868;28;20105;-74
2022/11/05 08:58:14;;;;;;;12.77;6.90;;;;;;;8.04;89.79;101626.53;5026052;28;20042;-73
2022/11/05 09:00:47;;;;;;;11.98;6.30;;;;;;;8.07;89.60;101623.00;5030143;28;20500;-73
2022/11/05 09:03:24;;;;;;;22.92;6.40;;;;;;;8.09;89.19;101626.47;5019968;28;20100;-73
2022/11/05 09:05:52;;;;;;;9.77;6.22;;;;;;;8.14;89.38;101634.31;5030619;28;20549;-74
2022/11/05 09:08:20;;;;;;;13.48;5.97;;;;;;;8.16;89.15;101622.91;5023254;28;20076;-75
2022/11/05 09:10:48;;;;;;;10.25;6.55;;;;;;;8.22;88.77;101635.13;5030203;28;20045;-74
2022/11/05 09:13:16;;;;;;;13.10;6.90;;;;;;;8.26;88.63;101646.50;5029161;28;20042;-75
2022/11/05 09:15:48;;;;;;;10.77;7.05;;;;;;;8.30;88.53;101638.56;5027468;28;20496;-74
2022/11/05 09:18:18;;;;;;;12.20;6.22;;;;;;;8.36;88.78;101635.00;5026562;28;20512;-73
2022/11/05 09:20:46;;;;;;;9.50;6.30;;;;;;;8.41;88.55;101643.75;5026787;28;20056;-73
2022/11/05 09:23:14;;;;;;;10.30;6.28;;;;;;;8.46;88.20;101636.69;5029736;28;20401;-74
2022/11/05 09:25:42;;;;;;;8.93;6.07;;;;;;;8.53;88.40;101640.16;5027961;28;20077;-73
2022/11/05 09:28:20;;;;;;;10.95;6.85;;;;;;;8.62;88.18;101644.47;5027693;28;20038;-73
2022/11/05 09:30:50;;;;;;;10.57;5.97;;;;;;;8.69;87.91;101640.91;5029320;28;20574;-74
2022/11/05 09:33:22;;;;;;;9.20;5.97;;;;;;;8.77;87.95;101641.69;5028055;28;20053;-73
2022/11/05 09:35:51;;;;;;;11.25;6.47;;;;;;;8.84;87.90;101640.75;5025054;28;20828;-75
2022/11/05 09:38:18;;;;;;;11.45;6.50;;;;;;;8.93;87.55;101649.44;5029360;28;20045;-74
2022/11/05 09:40:58;;;;;;;10.85;7.35;;;;;;;9.01;87.58;101651.06;5029339;28;20042;-74
2022/11/05 09:43:37;;;;;;;11.32;6.38;;;;;;;9.08;87.36;101648.41;5027086;28;20034;-75
2022/11/05 09:46:16;;;;;;;8.90;6.10;;;;;;;9.15;87.23;101648.31;5022898;28;20064;-74
2022/11/05 09:48:48;;;;;;;12.68;6.30;;;;;;;9.22;86.94;101646.47;5027758;28;20042;-73
2022/11/05 09:51:17;;;;;;;13.40;6.53;;;;;;;9.32;86.66;101652.50;5022754;28;20982;-73
2022/11/05 09:53:52;;;;;;;8.75;5.70;;;;;;;9.37;86.12;101653.31;5023338;28;20054;-73
2022/11/05 09:56:25;;;;;;;11.55;5.60;;;;;;;9.44;86.02;101655.00;5027497;28;20495;-73
2022/11/05 09:59:04;;;;;;;11.57;6.60;;;;;;;9.50;85.71;101650.53;5025399;28;20062;-74
2022/11/05 10:01:36;;;;;;;12.63;6.00;;;;;;;9.59;84.75;101658.28;5022883;28;20053;-74
2022/11/05 10:04:15;;;;;;;10.18;6.70;;;;;;;9.66;84.54;101664.34;5027906;28;20038;-74
2022/11/05 10:06:58;;;;;;;9.45;7.13;;;;;;;9.71;84.51;101666.03;5026937;28;20034;-74
2022/11/05 10:09:35;;;;;;;11.10;6.03;;;;;;;9.77;84.20;101665.94;5031525;28;20034;-73
2022/11/05 10:12:41;;;;;;;9.98;6.05;;;;;;;9.79;84.30;101664.16;5028371;28;20046;-73
2022/11/05 10:15:08;;;;;;;9.35;6.22;;;;;;;9.82;83.97;101662.38;5024177;28;20042;-74
2022/11/05 10:17:41;;;;;;;8.00;6.15;;;;;;;9.81;83.46;101666.78;5027721;28;20046;-73
2022/11/05 10:20:37;;;;;;;8.82;6.22;;;;;;;9.87;83.50;101669.34;5024630;28;20518;-74
2022/11/05 10:23:11;;;;;;;10.73;6.75;;;;;;;9.92;83.47;101671.91;5033050;28;20098;-73
2022/11/05 10:26:09;;;;;;;13.98;6.93;;;;;;;10.01;83.76;101676.19;5037258;28;20042;-74
2022/11/05 10:28:36;;;;;;;11.38;6.30;;;;;;;10.07;83.69;101665.53;5030756;28;20085;-75
2022/11/05 10:31:08;;;;;;;11.82;6.40;;;;;;;10.18;82.20;101668.00;5031432;28;20073;-73
2022/11/05 10:33:44;;;;;;;8.18;5.80;;;;;;;10.24;82.44;101676.69;5030008;28;20068;-74
2022/11/05 10:36:24;;;;;;;10.25;5.95;;;;;;;10.35;82.19;101665.09;5024417;28;20046;-74
2022/11/05 10:38:57;;;;;;;11.45;5.75;;;;;;;10.43;81.60;101668.50;5029614;28;20077;-72
2022/11/05 10:41:51;;;;;;;8.55;5.90;;;;;;;10.59;81.76;101670.91;5030168;28;20532;-74
2022/11/05 10:44:33;;;;;;;8.52;5.90;;;;;;;10.67;81.32;101669.00;5026990;28;20504;-73
2022/11/05 10:47:28;;;;;;;11.27;5.75;;;;;;;10.67;81.38;101667.25;5030584;28;20480;-73
2022/11/05 10:50:02;;;;;;;9.27;5.75;;;;;;;10.74;81.80;101669.75;5026265;28;20042;-74
2022/11/05 10:53:32;;;;;;;14.95;5.68;;;;;;;10.86;81.50;101669.53;5029025;28;20034;-73
2022/11/05 10:56:00;;;;;;;10.23;4.93;;;;;;;10.97;80.87;101669.34;5032471;28;20148;-72
2022/11/05 10:58:33;;;;;;;7.75;5.00;;;;;;;11.07;81.31;101670.03;5029214;28;20073;-73
2022/11/05 11:01:11;;;;;;;11.13;5.80;;;;;;;11.19;81.33;101665.38;5031310;28;20038;-73
2022/11/05 11:03:51;;;;;;;8.18;4.95;;;;;;;11.30;81.28;101665.16;5031599;28;20038;-74
2022/11/05 11:06:31;;;;;;;8.82;5.45;;;;;;;11.43;80.74;101668.44;5030418;28;20050;-74
2022/11/05 11:09:03;;;;;;;10.50;5.05;;;;;;;11.47;79.01;101664.81;5027131;28;20554;-73
2022/11/05 11:11:39;;;;;;;15.20;4.88;;;;;;;11.51;78.36;101668.25;5031818;28;20038;-73
2022/11/05 11:14:13;;;;;;;11.73;5.20;;;;;;;11.57;78.91;101672.53;5025162;28;20054;-74
2022/11/05 11:16:47;;;;;;;11.32;5.20;;;;;;;11.64;79.55;101674.19;5025912;28;20061;-72
2022/11/05 11:19:36;;;;;;;9.90;4.90;;;;;;;11.69;79.36;101669.66;5027821;28;20054;-73
2022/11/05 11:22:02;;;;;;;9.93;5.18;;;;;;;11.75;79.03;101676.56;5030160;28;20044;-73
2022/11/05 11:24:41;;;;;;;9.45;5.00;;;;;;;11.74;77.82;101672.19;5029056;28;20046;-73
2022/11/05 11:27:32;;;;;;;8.77;4.60;;;;;;;11.73;77.63;101670.44;5026124;28;20041;-72
2022/11/05 11:30:02;;;;;;;8.43;3.97;;;;;;;11.72;77.41;101671.34;5019147;28;20050;-74
2022/11/05 11:32:38;;;;;;;7.20;4.40;;;;;;;11.72;76.93;101672.22;5021244;28;20121;-74
2022/11/05 11:35:20;;;;;;;5.70;4.00;;;;;;;11.70;76.65;101674.03;5033232;28;20046;-75
2022/11/05 11:37:50;;;;;;;5.70;3.72;;;;;;;11.72;75.95;101666.06;5023862;28;20496;-74
2022/11/05 11:40:29;;;;;;;6.00;3.70;;;;;;;11.72;74.59;101669.59;5027775;28;20046;-74
2022/11/05 11:43:04;;;;;;;11.30;3.70;;;;;;;11.70;74.82;101667.91;5031146;28;20046;-74
2022/11/05 11:45:48;;;;;;;8.27;3.88;;;;;;;11.68;74.91;101667.06;5029824;28;20084;-74
2022/11/05 11:48:23;;;;;;;8.65;4.05;;;;;;;11.68;75.55;101667.06;5029083;28;20046;-74
2022/11/05 11:50:50;;;;;;;8.77;3.97;;;;;;;11.70;75.21;101667.91;5031576;28;20064;-75
2022/11/05 11:53:29;;;;;;;7.72;3.78;;;;;;;11.73;75.20;101659.88;5030859;28;20400;-75
2022/11/05 11:55:59;;;;;;;7.72;4.35;;;;;;;11.77;75.71;101661.56;5027147;28;20046;-73
2022/11/05 11:58:49;;;;;;;8.85;4.68;;;;;;;11.84;75.36;101662.31;5031076;28;20038;-72
2022/11/05 12:01:52;;;;;;;8.63;4.25;;;;;;;11.89;75.18;101658.66;5034276;28;20042;-73
2022/11/05 12:04:57;;;;;;;7.70;4.40;;;;;;;11.96;74.68;101660.25;5027616;28;20038;-73
2022/11/05 12:07:48;;;;;;;10.93;4.05;;;;;;;12.00;74.94;101668.16;5030072;28;20515;-73
2022/11/05 12:10:27;;;;;;;8.95;4.53;;;;;;;12.03;75.01;101663.66;5034024;28;20041;-74
2022/11/05 12:13:19;;;;;;;11.82;5.72;;;;;;;12.10;75.16;101677.59;5025914;28;20159;-74
2022/11/05 12:16:34;;;;;;;10.70;5.18;;;;;;;12.11;74.53;101672.25;5030163;28;20585;-73
2022/11/05 12:19:39;;;;;;;8.52;4.85;;;;;;;12.10;74.50;101664.38;5022951;28;20034;-73
2022/11/05 12:22:28;;;;;;;9.40;4.75;;;;;;;12.10;74.37;101656.44;5018209;28;20508;-74
2022/11/05 12:25:56;;;;;;;9.68;4.55;;;;;;;12.10;74.53;101657.31;5029263;28;20038;-74
2022/11/05 12:28:47;;;;;;;9.90;5.38;;;;;;;12.07;73.36;101656.50;5027357;28;20042;-74
2022/11/05 12:32:10;;;;;;;10.63;5.55;;;;;;;12.03;74.04;101646.91;5028640;28;20096;-72
2022/11/05 12:35:04;;;;;;;9.25;5.25;;;;;;;12.01;74.36;101652.25;5022573;28;20049;-72
2022/11/05 12:37:37;;;;;;;12.20;4.65;;;;;;;11.98;73.79;101654.94;5028363;28;20061;-71
2022/11/05 12:40:36;;;;;;;12.93;5.53;;;;;;;11.97;73.46;101655.81;5024455;28;20125;-71
2022/11/05 12:43:23;;;;;;;10.60;5.43;;;;;;;11.93;73.65;101649.72;5024164;28;20093;-72